Map

Track Data

SID SEASON NUMBER BASIN SUBBASIN NAME ISO_TIME NATURE LAT LON WMO_WIND WMO_PRES WMO_AGENCY TRACK_TYPE DIST2LAND LANDFALL IFLAG USA_AGENCY USA_ATCF_ID USA_LAT USA_LON USA_RECORD USA_STATUS USA_WIND USA_PRES USA_SSHS USA_R34_NE USA_R34_SE USA_R34_SW USA_R34_NW USA_R50_NE USA_R50_SE USA_R50_SW USA_R50_NW USA_R64_NE USA_R64_SE USA_R64_SW USA_R64_NW USA_POCI USA_ROCI USA_RMW USA_EYE TOKYO_LAT TOKYO_LON TOKYO_GRADE TOKYO_WIND TOKYO_PRES TOKYO_R50_DIR TOKYO_R50_LONG TOKYO_R50_SHORT TOKYO_R30_DIR TOKYO_R30_LONG TOKYO_R30_SHORT TOKYO_LAND CMA_LAT CMA_LON CMA_CAT CMA_WIND CMA_PRES HKO_LAT HKO_LON HKO_CAT HKO_WIND HKO_PRES NEWDELHI_LAT NEWDELHI_LON NEWDELHI_GRADE NEWDELHI_WIND NEWDELHI_PRES NEWDELHI_CI NEWDELHI_DP NEWDELHI_POCI REUNION_LAT REUNION_LON REUNION_TYPE REUNION_WIND REUNION_PRES REUNION_TNUM REUNION_CI REUNION_RMW REUNION_R34_NE REUNION_R34_SE REUNION_R34_SW REUNION_R34_NW REUNION_R50_NE REUNION_R50_SE REUNION_R50_SW REUNION_R50_NW REUNION_R64_NE REUNION_R64_SE REUNION_R64_SW REUNION_R64_NW BOM_LAT BOM_LON BOM_TYPE BOM_WIND BOM_PRES BOM_TNUM BOM_CI BOM_RMW BOM_R34_NE BOM_R34_SE BOM_R34_SW BOM_R34_NW BOM_R50_NE BOM_R50_SE BOM_R50_SW BOM_R50_NW BOM_R64_NE BOM_R64_SE BOM_R64_SW BOM_R64_NW BOM_ROCI BOM_POCI BOM_EYE BOM_POS_METHOD BOM_PRES_METHOD NADI_LAT NADI_LON NADI_CAT NADI_WIND NADI_PRES WELLINGTON_LAT WELLINGTON_LON WELLINGTON_WIND WELLINGTON_PRES DS824_LAT DS824_LON DS824_STAGE DS824_WIND DS824_PRES TD9636_LAT TD9636_LON TD9636_STAGE TD9636_WIND TD9636_PRES TD9635_LAT TD9635_LON TD9635_WIND TD9635_PRES TD9635_ROCI NEUMANN_LAT NEUMANN_LON NEUMANN_CLASS NEUMANN_WIND NEUMANN_PRES MLC_LAT MLC_LON MLC_CLASS MLC_WIND MLC_PRES USA_GUST BOM_GUST BOM_GUST_PER REUNION_GUST REUNION_GUST_PER USA_SEAHGT USA_SEARAD_NE USA_SEARAD_SE USA_SEARAD_SW USA_SEARAD_NW STORM_SPEED STORM_DIR
1999074S13118 1999 23 SI WA ELAINE 1999-03-15 01:00:00 NR -13.1000 117.500 25 1002 bom main 418 418 ______O_______ -1 -13.1000 117.500 20 25 1002 1.50000 134 3 5 7 249
1999074S13118 1999 23 SI WA ELAINE 1999-03-15 03:00:00 NR -13.1790 117.288 main 438 438 ______P_______ -1 -13.1790 117.288 20 25 1002 134 6 251
1999074S13118 1999 23 SI WA ELAINE 1999-03-15 04:00:00 NR -13.2000 117.200 25 1002 bom main 443 443 ______O_______ -1 -13.2000 117.200 20 25 1002 1.50000 134 3 5 4 265
1999074S13118 1999 23 SI WA ELAINE 1999-03-15 06:00:00 NR -13.1975 117.069 main 448 448 ______P_______ -1 -13.1975 117.069 20 25 1000 134 4 270
1999074S13118 1999 23 SI WA ELAINE 1999-03-15 07:00:00 NR -13.2000 117.000 25 1000 bom main 453 453 ______O_______ -1 -13.2000 117.000 20 25 1000 2.00000 134 3 5 5 257
1999074S13118 1999 23 SI WA ELAINE 1999-03-15 09:00:00 NR -13.2580 116.804 main 470 470 ______P_______ -1 -13.2580 116.804 20 25 1000 151 6 251
1999074S13118 1999 23 SI WA ELAINE 1999-03-15 10:00:00 NR -13.3000 116.700 25 1000 bom main 471 471 ______O_______ -1 -13.3000 116.700 20 25 1000 2.00000 161 3 5 22 268
1999074S13118 1999 23 SI WA ELAINE 1999-03-15 12:00:00 TS -13.2934 115.676 main 487 487 O_____P_____O_ jtwc_sh SH281999 -13.1000 114.000 25 -1 -13.3901 116.514 20 26 1000 161 -13.1000 114.000 TC 25 16 268
1999074S13118 1999 23 SI WA ELAINE 1999-03-15 15:00:00 TS -13.3401 115.328 main 496 496 P_____P_____P_ SH281999 -13.1327 114.387 25 -1 -13.5475 116.269 20 29 1000 161 -13.1327 114.387 TC 25 7 266
1999074S13118 1999 23 SI WA ELAINE 1999-03-15 16:00:00 TS -13.3297 115.182 30 1000 bom main 499 499 P_____O_____P_ SH281999 -13.1495 114.504 25 -1 -13.6000 116.200 20 30 1000 2.00000 161 3 5 -13.1495 114.504 TC 25 3 261
1999074S13118 1999 23 SI WA ELAINE 1999-03-15 18:00:00 TS -13.3659 115.165 main 509 509 O_____P_____O_ jtwc_sh SH281999 -13.2000 114.700 25 -1 -13.6977 116.094 20 31 998 161 -13.2000 114.700 TC 25 2 158
1999074S13118 1999 23 SI WA ELAINE 1999-03-15 21:00:00 TS -13.4974 115.250 main 518 518 P_____P_____P_ SH281999 -13.3274 114.888 25 -1 -13.8374 115.976 20 32 997 161 -13.3274 114.888 TC 25 3 158
1999074S13118 1999 23 SI WA ELAINE 1999-03-16 00:00:00 TS -13.6542 115.284 main 539 539 O_____P_____O_ jtwc_sh SH281999 -13.5000 115.000 25 -1 -13.9627 115.853 20 34 995 161 -13.5000 115.000 TC 25 3 166
1999074S13118 1999 23 SI WA ELAINE 1999-03-16 01:00:00 TS -13.7038 115.301 35 995 bom main 539 539 P_____O_____P_ SH281999 -13.5557 115.052 25 -1 -14.0000 115.800 30 35 995 3.00000 161 3 5 -13.5557 115.052 TC 25 3 166
1999074S13118 1999 23 SI WA ELAINE 1999-03-16 03:00:00 TS -13.8075 115.319 main 550 550 P_____P_____P_ SH281999 -13.6775 115.145 25 -1 -14.0675 115.668 30 38 995 161 -13.6775 115.145 TC 25 3 0
1999074S13118 1999 23 SI WA ELAINE 1999-03-16 04:00:00 TS -13.8636 115.319 40 995 bom main 561 561 P_____O_____P_ SH281999 -13.7454 115.178 25 -1 -14.1000 115.600 30 40 995 3.00000 161 3 5 -13.7454 115.178 TC 25 4 0
1999074S13118 1999 23 SI WA ELAINE 1999-03-16 06:00:00 TS -13.9862 115.292 main 572 572 O_____P_____O_ jtwc_sh SH281999 -13.9000 115.200 25 -1 -14.1588 115.475 30 40 991 161 -13.9000 115.200 TC 25 4 195
1999074S13118 1999 23 SI WA ELAINE 1999-03-16 07:00:00 TS -14.0625 115.261 40 990 bom main 583 583 P_____O_____P_ SH281999 -13.9938 115.192 25 -1 -14.2000 115.400 30 40 990 3.00000 161 3 5 -13.9938 115.192 TC 25 6 207
1999074S13118 1999 23 SI WA ELAINE 1999-03-16 09:00:00 TS -14.2399 115.154 main 596 596 P_____P_____P_ SH281999 -14.1999 115.125 27 -1 -14.3200 115.213 30 46 990 196 -14.1999 115.125 TC 27 7 213
1999074S13118 1999 23 SI WA ELAINE 1999-03-16 10:00:00 TS -14.3366 115.078 50 990 bom main 610 610 P_____O_____P_ SH281999 -14.3048 115.067 28 -1 -14.4000 115.100 30 50 990 3.50000 215 3 5 -14.3048 115.067 TC 28 8 222
1999074S13118 1999 23 SI WA ELAINE 1999-03-16 12:00:00 TS -14.5341 114.882 main 637 637 O_____P_____O_ jtwc_sh SH281999 -14.5000 114.900 30 -1 -14.6024 114.847 30 53 986 232 -14.5000 114.900 TC 30 8 227
1999074S13118 1999 23 SI WA ELAINE 1999-03-16 13:00:00 TS -14.6135 114.770 55 985 bom main 649 649 P_____O_____P_ SH281999 -14.5702 114.806 30 -1 -14.7000 114.700 30 55 985 4.00000 242 3 5 -14.5702 114.806 TC 30 8 241
1999074S13118 1999 23 SI WA ELAINE 1999-03-16 15:00:00 TS -14.7412 114.502 main 660 660 P_____P_____P_ SH281999 -14.6924 114.567 32 -1 -14.8388 114.372 30 55 981 259 -14.6924 114.567 TC 32 9 245
1999074S13118 1999 23 SI WA ELAINE 1999-03-16 16:00:00 TS -14.8025 114.350 55 980 bom main 672 672 P_____O_____P_ SH281999 -14.7537 114.425 33 -1 -14.9000 114.200 30 55 980 4.00000 269 3 5 -14.7537 114.425 TC 33 10 247
1999074S13118 1999 23 SI WA ELAINE 1999-03-16 18:00:00 TS -14.9418 114.022 main 686 686 O_____P_____O_ jtwc_sh SH281999 -14.9000 114.100 35 0 -15.0254 113.867 30 58 980 269 -14.9000 114.100 TC 35 11 245
1999074S13118 1999 23 SI WA ELAINE 1999-03-16 19:00:00 TS -15.0313 113.843 60 980 bom main 697 687 P_____O_____P_ SH281999 -14.9970 113.915 39 0 -15.1000 113.700 30 60 980 4.00000 269 3 5 -14.9970 113.915 TC 39 12 241
1999074S13118 1999 23 SI WA ELAINE 1999-03-16 21:00:00 TS -15.2450 113.461 main 692 688 P_____P_____P_ SH281999 -15.2202 113.508 47 0 -15.2945 113.367 30 63 976 269 -15.2202 113.508 TC 47 13 239
1999074S13118 1999 23 SI WA ELAINE 1999-03-16 22:00:00 TS -15.3618 113.265 65 975 bom main 683 683 P_____O_____P_ SH281999 -15.3427 113.298 51 0 -15.4000 113.200 40 65 975 4.50000 269 3 5 -15.3427 113.298 TC 51 13 238
1999074S13118 1999 23 SI WA ELAINE 1999-03-17 00:00:00 TS -15.6000 112.884 main 687 683 O_____P_____O_ jtwc_sh SH281999 -15.6000 112.900 60 0 -15.6000 112.851 40 68 971 251 -15.6000 112.900 TC 60 13 236
1999074S13118 1999 23 SI WA ELAINE 1999-03-17 01:00:00 TS -15.7201 112.715 70 970 bom main 689 679 P_____O_____P_ SH281999 -15.7302 112.722 62 0 -15.7000 112.700 40 70 970 4.50000 242 3 5 -15.7302 112.722 TC 62 11 230
1999074S13118 1999 23 SI WA ELAINE 1999-03-17 03:00:00 TS -15.9639 112.431 main 679 672 P_____P_____P_ SH281999 -15.9999 112.397 67 1 -15.8920 112.497 40 70 966 224 -15.9999 112.397 TC 67 11 227
1999074S13118 1999 23 SI WA ELAINE 1999-03-17 04:00:00 TS -16.0905 112.301 70 965 bom main 672 657 P_____O_____P_ SH281999 -16.1357 112.252 70 1 -16.0000 112.400 40 70 965 4.50000 215 3 5 -16.1357 112.252 TC 70 11 224
1999074S13118 1999 23 SI WA ELAINE 1999-03-17 06:00:00 TS -16.3538 112.044 main 650 643 O_____P_____O_ jtwc_sh SH281999 -16.4000 112.000 75 1 -16.2613 112.131 40 70 965 215 -16.4000 112.000 TC 75 11 223
1999074S13118 1999 23 SI WA ELAINE 1999-03-17 07:00:00 TS -16.4815 111.927 70 965 bom main 643 625 P_____O_____P_ SH281999 -16.5223 111.891 77 1 -16.4000 112.000 40 70 965 4.50000 215 9 4 5 -16.5223 111.891 TC 77 10 218
1999074S13118 1999 23 SI WA ELAINE 1999-03-17 09:00:00 TS -16.7271 111.737 main 629 619 P_____P_____P_ SH281999 -16.7574 111.712 82 1 -16.6667 111.787 40 73 965 215 -16.7574 111.712 TC 82 9 215
1999074S13118 1999 23 SI WA ELAINE 1999-03-17 10:00:00 TS -16.8480 111.658 75 965 bom main 619 597 P_____O_____P_ SH281999 -16.8720 111.637 85 2 -16.8000 111.700 40 75 965 4.50000 215 9 4 5 -16.8720 111.637 TC 85 8 210
1999074S13118 1999 23 SI WA ELAINE 1999-03-17 12:00:00 TS -17.0889 111.520 main 597 587 O_____P_____O_ jtwc_sh SH281999 -17.1000 111.500 90 2 -17.0667 111.561 40 75 961 215 -17.1000 111.500 TC 90 8 209
1999074S13118 1999 23 SI WA ELAINE 1999-03-17 13:00:00 TS -17.2059 111.450 75 960 bom main 592 572 P_____O_____P_ SH281999 -17.2088 111.425 90 2 -17.2000 111.500 40 75 960 4.50000 215 9 4 5 -17.2088 111.425 TC 90 8 209
1999074S13118 1999 23 SI WA ELAINE 1999-03-17 15:00:00 TS -17.4405 111.312 main 577 567 P_____P_____P_ SH281999 -17.4275 111.285 90 2 -17.4667 111.367 40 78 960 215 -17.4275 111.285 TC 90 8 209
1999074S13118 1999 23 SI WA ELAINE 1999-03-17 16:00:00 TS -17.5620 111.247 80 960 bom main 563 544 P_____O_____P_ SH281999 -17.5429 111.220 90 2 -17.6000 111.300 40 80 960 5.00000 215 8 3 5 -17.5429 111.220 TC 90 8 206
1999074S13118 1999 23 SI WA ELAINE 1999-03-17 18:00:00 TS -17.8196 111.122 main 549 540 O_____P_____O_ jtwc_sh SH281999 -17.8000 111.100 90 2 -17.8588 111.167 40 83 956 215 -17.8000 111.100 TC 90 9 204
1999074S13118 1999 23 SI WA ELAINE 1999-03-17 19:00:00 TS -17.9699 111.058 85 955 bom main 531 516 P_____O_____P_ SH281999 -17.9548 111.036 90 2 -18.0000 111.100 40 85 955 5.00000 215 8 4 5 -17.9548 111.036 TC 90 10 201
1999074S13118 1999 23 SI WA ELAINE 1999-03-17 21:00:00 TS -18.3069 110.933 main 516 507 P_____P_____P_ SH281999 -18.2925 110.920 90 2 -18.3358 110.959 40 88 951 215 -18.2925 110.920 TC 90 11 198
1999074S13118 1999 23 SI WA ELAINE 1999-03-17 22:00:00 TS -18.4775 110.881 90 950 bom main 499 481 P_____O_____P_ SH281999 -18.4662 110.871 90 2 -18.5000 110.900 40 90 950 5.50000 215 8 4 5 -18.4662 110.871 TC 90 10 193
1999074S13118 1999 23 SI WA ELAINE 1999-03-18 00:00:00 TS -18.7907 110.807 main 481 473 O_____P_____O_ jtwc_sh SH281999 -18.8000 110.800 90 2 -18.7721 110.820 40 90 946 215 -18.8000 110.800 TC 90 9 191
1999074S13118 1999 23 SI WA ELAINE 1999-03-18 01:00:00 TS -18.9263 110.783 90 945 bom main 473 449 P_____O_____P_ SH281999 -18.9395 110.775 91 2 -18.9000 110.800 40 90 945 5.50000 215 8 4 5 -18.9395 110.775 TC 91 8 186
1999074S13118 1999 23 SI WA ELAINE 1999-03-18 03:00:00 TS -19.1862 110.768 main 449 442 P_____P_____P_ SH281999 -19.2000 110.755 95 2 -19.1588 110.795 40 90 945 215 -19.2000 110.755 TC 95 8 0
1999074S13118 1999 23 SI WA ELAINE 1999-03-18 04:00:00 TS -19.3189 110.773 90 945 bom main 442 420 P_____O_____P_ SH281999 -19.3284 110.760 96 3 -19.3000 110.800 40 90 945 5.50000 215 8 4 5 -19.3284 110.760 TC 96 9 0
1999074S13118 1999 23 SI WA ELAINE 1999-03-18 06:00:00 TS -19.6093 110.797 main 420 413 O_____P_____O_ jtwc_sh SH281999 -19.6000 110.800 100 3 -19.6279 110.792 40 90 945 197 -19.6000 110.800 TC 100 9 173
1999074S13118 1999 23 SI WA ELAINE 1999-03-18 07:00:00 TS -19.7719 110.825 90 945 bom main 407 379 P_____O_____P_ SH281999 -19.7579 110.838 98 3 -19.8000 110.800 40 90 945 5.50000 188 3 5 -19.7579 110.838 TC 98 10 167
1999074S13118 1999 23 SI WA ELAINE 1999-03-18 09:00:00 TS -20.1035 110.915 main 379 364 P_____P_____P_ SH281999 -20.0926 110.942 95 2 -20.1254 110.861 40 86 945 188 -20.0926 110.942 TC 95 10 166
1999074S13118 1999 23 SI WA ELAINE 1999-03-18 10:00:00 TS -20.2758 110.966 85 945 bom main 358 333 P_____O_____P_ SH281999 -20.2638 110.999 93 2 -20.3000 110.900 40 85 945 5.00000 188 3 5 -20.2638 110.999 TC 93 11 166
1999074S13118 1999 23 SI WA ELAINE 1999-03-18 12:00:00 TS -20.6315 111.058 main 333 324 O_____P_____O_ jtwc_sh SH281999 -20.6000 111.100 90 2 -20.6946 110.975 40 81 948 188 -20.6000 111.100 TC 90 11 168
1999074S13118 1999 23 SI WA ELAINE 1999-03-18 13:00:00 TS -20.7951 111.085 80 950 bom main 324 307 P_____O_____P_ SH281999 -20.7426 111.128 89 2 -20.9000 111.000 40 80 950 5.00000 188 3 5 -20.7426 111.128 TC 89 10 174
1999074S13118 1999 23 SI WA ELAINE 1999-03-18 15:00:00 TS -21.1133 111.112 main 307 301 P_____P_____P_ SH281999 -21.0200 111.165 87 2 -21.3000 111.005 40 80 953 188 -21.0200 111.165 TC 87 10 174
1999074S13118 1999 23 SI WA ELAINE 1999-03-18 16:00:00 TS -21.2773 111.118 80 955 bom main 295 280 P_____O_____P_ SH281999 -21.1659 111.178 86 2 -21.5000 111.000 40 80 955 5.00000 188 3 5 -21.1659 111.178 TC 86 10 178
1999074S13118 1999 23 SI WA ELAINE 1999-03-18 18:00:00 TS -21.6333 111.131 main 280 272 O_____P_____O_ jtwc_sh SH281999 -21.5000 111.200 85 2 -21.9000 110.992 40 73 955 170 -21.5000 111.200 TC 85 11 0
1999074S13118 1999 23 SI WA ELAINE 1999-03-18 19:00:00 TS -21.8453 111.141 70 955 bom main 272 248 P_____O_____P_ SH281999 -21.7179 111.211 78 1 -22.1000 111.000 40 70 955 4.50000 161 3 5 -21.7179 111.211 TC 78 13 176
1999074S13118 1999 23 SI WA ELAINE 1999-03-18 21:00:00 TS -22.3000 111.180 main 248 246 P_____P_____P_ SH281999 -22.2000 111.235 65 1 -22.5000 111.069 40 66 961 161 -22.2000 111.235 TC 65 14 175
1999074S13118 1999 23 SI WA ELAINE 1999-03-18 22:00:00 TS -22.5304 111.201 65 965 bom main 246 246 P_____O_____P_ SH281999 -22.4457 111.251 58 0 -22.7000 111.100 40 65 965 4.50000 161 3 5 -22.4457 111.251 TC 58 14 176
1999074S13118 1999 23 SI WA ELAINE 1999-03-19 00:00:00 TS -22.9719 111.233 main 249 249 O_____P_____O_ jtwc_sh SH281999 -22.9000 111.300 45 0 -23.1158 111.098 40 61 968 161 -22.9000 111.300 TC 45 12 176
1999074S13118 1999 23 SI WA ELAINE 1999-03-19 01:00:00 TS -23.1471 111.250 60 970 bom main 241 230 P_____O_____P_ SH281999 -23.0706 111.326 45 0 -23.3000 111.100 30 60 970 4.00000 161 3 5 -23.0706 111.326 TC 45 9 171
1999074S13118 1999 23 SI WA ELAINE 1999-03-19 03:00:00 TS -23.4305 111.319 main 230 218 P_____P_____P_ SH281999 -23.3648 111.398 45 0 -23.5617 111.161 30 60 973 161 -23.3648 111.398 TC 45 9 166
1999074S13118 1999 23 SI WA ELAINE 1999-03-19 04:00:00 TS -23.5689 111.367 60 975 bom main 216 200 P_____O_____P_ SH281999 -23.5033 111.450 45 0 -23.7000 111.200 30 60 975 4.00000 161 3 5 -23.5033 111.450 TC 45 10 162
1999074S13118 1999 23 SI WA ELAINE 1999-03-19 06:00:00 TS -23.8990 111.486 main 200 185 O_____P_____O_ jtwc_sh SH281999 -23.8000 111.600 45 0 -24.0970 111.259 30 56 975 161 -23.8000 111.600 TC 45 11 160
1999074S13118 1999 23 SI WA ELAINE 1999-03-19 07:00:00 TS -24.0922 111.575 55 975 bom main 185 161 P_____O_____P_ SH281999 -23.9883 111.712 42 0 -24.3000 111.300 30 55 975 4.00000 161 3 5 -23.9883 111.712 TC 42 13 154
1999074S13118 1999 23 SI WA ELAINE 1999-03-19 09:00:00 TS -24.4721 111.796 main 162 153 P_____P_____P_ SH281999 -24.3928 111.984 37 0 -24.6308 111.420 30 55 978 161 -24.3928 111.984 TC 37 13 151
1999074S13118 1999 23 SI WA ELAINE 1999-03-19 10:00:00 TS -24.6665 111.920 55 980 bom main 155 142 P_____O_____P_ SH281999 -24.5998 112.129 34 0 -24.8000 111.500 30 55 980 4.00000 161 3 5 -24.5998 112.129 TC 34 14 151
1999074S13118 1999 23 SI WA ELAINE 1999-03-19 12:00:00 TS -25.0622 112.162 main 137 132 O_____P_____O_ jtwc_sh SH281999 -25.0000 112.400 30 -1 -25.1866 111.687 30 51 980 161 -25.0000 112.400 TC 30 13 152
1999074S13118 1999 23 SI WA ELAINE 1999-03-19 13:00:00 TS -25.2432 112.259 50 980 bom main 123 100 P_____O_____P_ SH281999 -25.1648 112.488 30 -1 -25.4000 111.800 30 50 980 4.00000 161 3 5 -25.1648 112.488 TC 30 12 155
1999074S13118 1999 23 SI WA ELAINE 1999-03-19 15:00:00 TS -25.6051 112.440 main 100 86 P_____P_____P_ SH281999 -25.4771 112.637 30 -1 -25.8612 112.046 30 43 983 161 -25.4771 112.637 TC 30 12 155
1999074S13118 1999 23 SI WA ELAINE 1999-03-19 16:00:00 TS -25.7918 112.541 40 985 bom main 86 49 P_____O_____P_ SH281999 -25.6376 112.711 30 -1 -26.1000 112.200 30 40 985 3.50000 161 3 5 -25.6376 112.711 TC 30 13 151
1999074S13118 1999 23 SI WA ELAINE 1999-03-19 18:00:00 TS -26.1889 112.794 main 49 39 O_____P_____O_ jtwc_sh SH281999 -26.0000 112.900 30 -1 -26.5666 112.581 30 36 988 161 -26.0000 112.900 TC 30 15 150
1999074S13118 1999 23 SI WA ELAINE 1999-03-19 19:00:00 TS -26.4177 112.948 35 990 bom main 41 37 P_____O_____P_ SH281999 -26.2266 113.022 29 -1 -26.8000 112.800 30 35 990 3.00000 161 3 5 -26.2266 113.022 TC 29 17 148
1999074S13118 1999 23 SI WA ELAINE 1999-03-19 21:00:00 TS -26.9069 113.299 main 37 31 P_____P_____P_ SH281999 -26.7271 113.318 27 -1 -27.2666 113.261 30 31 993 161 -26.7271 113.318 TC 27 18 147
1999074S13118 1999 23 SI WA ELAINE 1999-03-19 22:00:00 TS -27.1588 113.495 30 995 bom main 37 22 P_____O_____P_ SH281999 -26.9882 113.492 26 -1 -27.5000 113.500 20 30 995 161 3 5 -26.9882 113.492 TC 26 19 144
1999074S13118 1999 23 SI WA ELAINE 1999-03-20 00:00:00 TS -27.6608 113.920 main 22 0 O_____P_____O_ jtwc_sh SH281999 -27.5000 113.900 25 -1 -27.9823 113.959 20 30 996 143 -27.5000 113.900 TC 25 19 141
1999074S13118 1999 23 SI WA ELAINE 1999-03-20 01:00:00 TS -27.8928 114.156 30 997 bom main 0 0 P_____O_____P_ SH281999 -27.7392 114.134 25 -1 -28.2000 114.200 20 30 997 134 3 5 -27.7392 114.134 TC 25 19 135
1999074S13118 1999 23 SI WA ELAINE 1999-03-20 03:00:00 TS -28.3374 114.678 main 0 0 P_____P_____P_ SH281999 -28.1838 114.651 25 -1 -28.5678 114.720 20 30 997 116 -28.1838 114.651 TC 25 19 133
1999074S13118 1999 23 SI WA ELAINE 1999-03-20 04:00:00 TS -28.5468 114.964 30 997 bom main 0 0 P_____O_____P_ SH281999 -28.3937 114.927 25 -1 -28.7000 115.000 20 30 997 107 3 5 -28.3937 114.927 TC 25 18 123
1999074S13118 1999 23 SI WA ELAINE 1999-03-20 06:00:00 TS -28.8435 115.553 main 0 0 O_____P_____O_ jtwc_sh SH281999 -28.8000 115.500 25 -1 -28.8652 115.579 20 30 997 89 -28.8000 115.500 TC 25 18 113
1999074S13118 1999 23 SI WA ELAINE 1999-03-20 07:00:00 NR -28.9000 115.900 30 997 bom main 0 0 ______O_______ SH281999 -1 -28.9000 115.900 20 30 997 80 3 5 TC 19 94
1999074S13118 1999 23 SI WA ELAINE 1999-03-20 09:00:00 NR -28.9104 116.620 main 0 0 ______P_______ SH281999 -1 -28.9104 116.620 20 30 997 80 TC 19 90
1999074S13118 1999 23 SI WA ELAINE 1999-03-20 10:00:00 NR -28.9000 117.000 30 998 bom main 0 ______O_______ SH281999 -1 -28.9000 117.000 20 30 998 80 3 5 TC 20 88

About IBTrACS Database

This database is a web-friendly format of International Best Track Archive for Climate Stewardship (IBTrACS), a global best track data archive curated by NOAA dating back to 1842.

Updated: 2021-12-03